SAME/MDZ METAR and TAF weather

Enter ICAO airport designator
Station Type Date Time Source
SAME METAR 2024/06/16 10:00 UTC NOAA

SAME 161000Z 34002KT CAVOK 06/01 Q1018


Station Type Date Time Source
SAME Decoded METAR 2024/06/16 10:00 UTC NOAA

Mendoza Aerodrome, Argentina (SAME) 32-50S 068-47W 704M
Jun 16, 2024 - 06:00 AM EDT / 2024.06.16 1000 UTC
Wind: from the NNW (340 degrees) at 2 MPH (2 KT):0
Visibility: greater than 7 mile(s):0
Temperature: 42 F (6 C)
Dew Point: 33 F (1 C)
Relative Humidity: 70%
Pressure (altimeter): 30.06 in. Hg (1018 hPa)
ob: SAME 161000Z 34002KT CAVOK 06/01 Q1018
cycle: 10

Station Type Date Time Source
SAME TAF 2024/06/16 06:33 UTC NOAA